Time;durP1;ratioP1;P1;durP2;ratioP2;P2;SDS_P1;SDS_P2;PMS_P1;PMS_P2;Temp;Humidity;BMP_temperature;BMP_pressure;BME280_temperature;BME280_humidity;BME280_pressure;Samples;Min_cycle;Max_cycle;Signal;HPM_P1;HPM_P2
2023/07/11 00:02:09;;;;;;;2.40;0.77;;;;;;;29.60;37.29;101758.25;5051445;28;20051;-70
2023/07/11 00:04:35;;;;;;;1.38;0.43;;;;;;;29.56;36.65;101756.78;5051797;28;20024;-70
2023/07/11 00:07:01;;;;;;;1.40;0.40;;;;;;;29.51;37.45;101750.91;5068409;28;20028;-70
2023/07/11 00:09:26;;;;;;;0.60;0.52;;;;;;;29.43;37.49;101739.88;5051521;28;20031;-70
2023/07/11 00:11:52;;;;;;;1.05;0.55;;;;;;;29.47;36.83;101741.34;5069155;28;20032;-70
2023/07/11 00:14:17;;;;;;;1.52;0.70;;;;;;;29.50;36.93;101746.50;5069057;28;20017;-70
2023/07/11 00:16:43;;;;;;;4.00;0.82;;;;;;;29.41;36.63;101741.81;5051633;28;20016;-72
2023/07/11 00:19:10;;;;;;;5.28;1.40;;;;;;;29.52;37.09;101740.97;5051612;28;20036;-70
2023/07/11 00:21:36;;;;;;;2.65;0.55;;;;;;;29.57;37.07;101747.72;5050793;28;20729;-70
2023/07/11 00:24:03;;;;;;;2.30;0.40;;;;;;;29.37;36.50;101738.47;5069255;28;20111;-70
2023/07/11 00:26:34;;;;;;;2.92;1.58;;;;;;;29.87;36.75;101732.03;5051624;28;20434;-70
2023/07/11 00:29:12;;;;;;;0.43;0.43;;;;;;;29.65;36.84;101732.81;5050598;28;20021;-70
2023/07/11 00:31:37;;;;;;;1.08;0.47;;;;;;;29.65;36.39;101735.50;5051366;28;20032;-70
2023/07/11 00:34:03;;;;;;;3.25;0.75;;;;;;;29.71;36.67;101735.03;5055166;28;20083;-70
2023/07/11 00:36:28;;;;;;;0.40;0.40;;;;;;;29.53;37.47;101738.16;5073024;28;20035;-70
2023/07/11 00:38:54;;;;;;;1.08;0.57;;;;;;;29.41;37.78;101731.03;5055149;28;20119;-71
2023/07/11 00:41:19;;;;;;;1.13;0.70;;;;;;;29.55;37.93;101722.75;5055523;28;20043;-71
2023/07/11 00:43:44;;;;;;;2.92;0.90;;;;;;;29.75;37.19;101726.59;5054786;28;20021;-70
2023/07/11 00:46:13;;;;;;;0.88;0.60;;;;;;;29.53;37.66;101721.16;5054804;28;20028;-70
2023/07/11 00:48:44;;;;;;;2.33;0.57;;;;;;;29.39;38.01;101716.84;5055354;28;20028;-69
2023/07/11 00:51:14;;;;;;;0.55;0.20;;;;;;;29.37;38.08;101716.09;5054295;28;20105;-71
2023/07/11 00:53:42;;;;;;;1.10;0.40;;;;;;;29.34;38.50;101719.03;5055615;28;20032;-70
2023/07/11 00:56:10;;;;;;;0.40;0.30;;;;;;;29.50;38.07;101716.00;5076344;28;20428;-71
2023/07/11 00:58:39;;;;;;;4.03;0.65;;;;;;;29.27;38.78;101711.41;5092109;28;20425;-70
2023/07/11 01:01:05;;;;;;;0.95;0.95;;;;;;;29.31;38.98;101703.09;5091514;28;20055;-71
2023/07/11 01:03:31;;;;;;;1.45;0.25;;;;;;;29.17;38.67;101704.97;5091492;28;20136;-70
2023/07/11 01:05:57;;;;;;;1.38;0.50;;;;;;;29.50;38.42;101703.41;5091740;28;20028;-70
2023/07/11 01:08:24;;;;;;;0.47;0.47;;;;;;;29.52;38.40;101690.66;5092124;28;20122;-71
2023/07/11 01:10:49;;;;;;;0.52;0.50;;;;;;;29.54;38.23;101694.13;5090753;28;20031;-71
2023/07/11 01:13:15;;;;;;;1.40;0.65;;;;;;;29.43;38.42;101696.78;5091943;28;20027;-71
2023/07/11 01:15:40;;;;;;;0.38;0.38;;;;;;;29.40;38.53;101683.53;5091813;28;20024;-71
2023/07/11 01:18:06;;;;;;;0.45;0.40;;;;;;;29.52;38.01;101685.28;5092240;28;20040;-70
2023/07/11 01:20:31;;;;;;;0.82;0.30;;;;;;;29.55;37.78;101679.69;5092926;28;20529;-71
2023/07/11 01:22:57;;;;;;;0.60;0.60;;;;;;;29.55;37.70;101679.69;5091360;28;20026;-70
2023/07/11 01:25:23;;;;;;;2.85;0.60;;;;;;;29.37;38.21;101681.94;5091050;28;20057;-71
2023/07/11 01:27:51;;;;;;;0.60;0.32;;;;;;;29.36;37.74;101674.84;5091536;28;20032;-70
2023/07/11 01:30:19;;;;;;;0.40;0.40;;;;;;;29.61;37.48;101667.56;5091277;28;20051;-71
2023/07/11 01:32:45;;;;;;;1.08;0.50;;;;;;;29.41;37.80;101661.88;5091014;28;20016;-71
2023/07/11 01:35:11;;;;;;;1.67;0.95;;;;;;;29.31;37.43;101654.66;5090923;28;20032;-71
2023/07/11 01:37:36;;;;;;;3.03;0.90;;;;;;;29.24;37.21;101647.03;5092799;28;20046;-71
2023/07/11 01:40:05;;;;;;;1.35;0.85;;;;;;;29.18;38.08;101647.50;5091390;28;20027;-70
2023/07/11 01:42:30;;;;;;;0.30;0.25;;;;;;;29.25;37.66;101638.00;5091410;28;20020;-71
2023/07/11 01:44:56;;;;;;;0.35;0.35;;;;;;;28.88;37.30;101637.19;5089327;28;20024;-71
2023/07/11 01:47:21;;;;;;;3.95;0.35;;;;;;;28.91;36.95;101626.22;5090337;28;20019;-71
2023/07/11 01:49:49;;;;;;;1.80;0.45;;;;;;;29.01;36.93;101626.38;5091420;28;20119;-71
2023/07/11 01:52:18;;;;;;;0.45;0.40;;;;;;;29.13;36.83;101620.06;5090452;28;20034;-70
2023/07/11 01:54:43;;;;;;;0.50;0.35;;;;;;;29.20;36.68;101621.28;5090993;28;20032;-70
2023/07/11 01:57:09;;;;;;;2.40;1.27;;;;;;;29.00;36.55;101609.34;5054016;28;20517;-71
2023/07/11 01:59:36;;;;;;;1.77;1.10;;;;;;;28.90;37.21;101606.50;5071337;28;20029;-71
2023/07/11 02:02:02;;;;;;;1.92;0.88;;;;;;;28.80;37.35;101600.13;5053422;28;20070;-71
2023/07/11 02:04:27;;;;;;;1.92;1.65;;;;;;;28.64;38.06;101602.25;5054139;28;20020;-71
2023/07/11 02:06:53;;;;;;;1.85;0.65;;;;;;;28.58;37.99;101598.16;5052435;28;20039;-71
2023/07/11 02:09:20;;;;;;;1.77;1.02;;;;;;;28.22;38.77;101598.09;5053933;28;20021;-71
2023/07/11 02:11:46;;;;;;;1.73;1.05;;;;;;;28.13;38.54;101593.38;5053965;28;20033;-71
2023/07/11 02:14:15;;;;;;;0.32;0.32;;;;;;;27.93;38.51;101590.28;5070782;28;20035;-71
2023/07/11 02:16:44;;;;;;;3.75;0.40;;;;;;;27.71;39.00;101588.28;5054199;28;20097;-71
2023/07/11 02:19:11;;;;;;;3.40;0.82;;;;;;;27.31;39.78;101584.78;5053433;28;20070;-71
2023/07/11 02:21:37;;;;;;;0.47;0.30;;;;;;;27.64;39.26;101570.00;5052979;28;20480;-70
2023/07/11 02:24:03;;;;;;;1.00;0.90;;;;;;;27.61;39.24;101564.84;5053192;28;20495;-70
2023/07/11 02:26:29;;;;;;;0.70;0.60;;;;;;;28.03;38.51;101570.84;5071427;28;20037;-72
2023/07/11 02:28:54;;;;;;;2.65;1.30;;;;;;;27.95;38.57;101565.97;5052275;28;20033;-71
2023/07/11 02:31:19;;;;;;;1.42;0.90;;;;;;;27.29;39.92;101559.91;5071543;28;20028;-72
2023/07/11 02:33:51;;;;;;;4.13;0.65;;;;;;;27.41;39.88;101564.44;5071349;28;20051;-71
2023/07/11 02:36:16;;;;;;;1.27;0.52;;;;;;;27.16;39.81;101563.44;5053444;28;20107;-71
2023/07/11 02:38:42;;;;;;;1.27;0.73;;;;;;;27.87;38.92;101558.47;5053355;28;20132;-71
2023/07/11 02:41:07;;;;;;;2.00;0.93;;;;;;;27.16;40.37;101562.56;5052923;28;20502;-70
2023/07/11 02:43:33;;;;;;;0.90;0.85;;;;;;;27.59;39.95;101557.75;5052813;28;20101;-71
2023/07/11 02:45:59;;;;;;;1.25;0.88;;;;;;;27.96;38.87;101545.34;5052711;28;20222;-70
2023/07/11 02:48:26;;;;;;;0.93;0.80;;;;;;;27.82;39.16;101555.28;5053376;28;20028;-70
2023/07/11 02:50:51;;;;;;;7.30;1.05;;;;;;;27.63;39.52;101538.75;5051887;28;20024;-71
2023/07/11 02:53:16;;;;;;;0.57;0.55;;;;;;;28.00;38.81;101536.13;5053345;28;20094;-70
2023/07/11 02:55:42;;;;;;;0.80;0.80;;;;;;;28.24;38.17;101534.31;5066815;28;20036;-71
2023/07/11 02:58:07;;;;;;;2.58;0.88;;;;;;;28.19;38.18;101533.81;5089689;28;20380;-71
2023/07/11 03:00:33;;;;;;;0.73;0.70;;;;;;;28.03;38.58;101519.81;5090041;28;20020;-71
2023/07/11 03:02:58;;;;;;;0.70;0.60;;;;;;;27.75;38.82;101532.50;5088753;28;20043;-71
2023/07/11 03:05:24;;;;;;;0.60;0.60;;;;;;;27.76;38.77;101532.38;5090047;28;20031;-71
2023/07/11 03:07:49;;;;;;;0.77;0.60;;;;;;;28.04;38.54;101519.69;5089046;28;20027;-71
2023/07/11 03:10:15;;;;;;;1.33;1.02;;;;;;;27.43;39.49;101520.41;5089076;28;20097;-71
2023/07/11 03:12:40;;;;;;;0.32;0.32;;;;;;;27.25;40.61;101519.84;5089896;28;20020;-71
2023/07/11 03:15:07;;;;;;;0.57;0.57;;;;;;;27.69;39.50;101515.00;5089520;28;20383;-70
2023/07/11 03:17:32;;;;;;;0.60;0.60;;;;;;;27.59;39.94;101514.81;5089115;28;20057;-71
2023/07/11 03:19:58;;;;;;;0.93;0.60;;;;;;;26.87;41.44;101512.66;5090504;28;20020;-71
2023/07/11 03:22:23;;;;;;;2.38;0.65;;;;;;;27.25;40.66;101506.44;5090674;28;20111;-71
2023/07/11 03:24:49;;;;;;;2.10;1.23;;;;;;;27.04;40.82;101502.59;5088312;28;20031;-71
2023/07/11 03:27:14;;;;;;;0.80;0.73;;;;;;;26.29;42.17;101511.16;5089673;28;20421;-71
2023/07/11 03:29:40;;;;;;;2.28;1.65;;;;;;;26.70;41.31;101502.22;5089436;28;20488;-70
2023/07/11 03:32:06;;;;;;;1.00;0.90;;;;;;;26.26;42.28;101497.97;5089586;28;20042;-71
2023/07/11 03:34:32;;;;;;;0.65;0.65;;;;;;;26.47;41.84;101501.88;5089474;28;20077;-71
2023/07/11 03:36:57;;;;;;;1.52;0.77;;;;;;;26.49;41.94;101491.94;5105948;28;20396;-71
2023/07/11 03:39:23;;;;;;;2.00;1.00;;;;;;;26.76;41.38;101493.72;5088471;28;20024;-71
2023/07/11 03:41:49;;;;;;;1.25;1.02;;;;;;;26.83;41.66;101489.69;5088971;28;20040;-71
2023/07/11 03:44:14;;;;;;;3.15;1.15;;;;;;;27.00;41.04;101487.66;5089119;28;20057;-71
2023/07/11 03:46:40;;;;;;;1.05;0.60;;;;;;;26.99;40.85;101488.63;5090072;28;20499;-71
2023/07/11 03:49:06;;;;;;;0.85;0.80;;;;;;;26.75;41.29;101482.16;5088625;28;20032;-71
2023/07/11 03:51:32;;;;;;;0.93;0.75;;;;;;;27.35;40.52;101481.63;5089191;28;20028;-71
2023/07/11 03:53:57;;;;;;;3.90;1.05;;;;;;;27.48;40.10;101474.47;5088130;28;20016;-71
2023/07/11 03:56:22;;;;;;;2.50;1.20;;;;;;;27.46;40.50;101473.69;5088763;28;20552;-71
2023/07/11 03:58:51;;;;;;;2.80;0.93;;;;;;;27.47;40.04;101472.75;5088792;28;20030;-70
2023/07/11 04:01:18;;;;;;;3.50;1.42;;;;;;;27.08;40.93;101472.75;5088903;28;20472;-71
2023/07/11 04:03:43;;;;;;;3.58;1.40;;;;;;;26.61;41.32;101467.94;5089129;28;20530;-71
2023/07/11 04:06:09;;;;;;;3.42;0.80;;;;;;;26.98;41.17;101465.44;5088657;28;20056;-71
2023/07/11 04:08:34;;;;;;;1.77;1.05;;;;;;;25.72;42.98;101473.69;5088600;28;20020;-71
2023/07/11 04:11:00;;;;;;;1.98;1.20;;;;;;;26.70;41.37;101467.34;5088429;28;20031;-71
2023/07/11 04:13:26;;;;;;;2.83;1.67;;;;;;;26.53;41.70;101455.94;5088505;28;20099;-71
2023/07/11 04:15:51;;;;;;;5.85;1.08;;;;;;;26.12;42.39;101456.88;5089802;28;20552;-71
2023/07/11 04:18:16;;;;;;;0.80;0.80;;;;;;;26.18;42.78;101456.47;5090554;28;20484;-71
2023/07/11 04:20:42;;;;;;;1.25;1.02;;;;;;;27.00;41.13;101447.44;5105303;28;20577;-71
2023/07/11 04:23:07;;;;;;;0.73;0.73;;;;;;;26.97;40.92;101453.00;5087762;28;20428;-71
2023/07/11 04:25:33;;;;;;;2.83;1.10;;;;;;;26.75;41.93;101446.47;5090369;28;20031;-71
2023/07/11 04:27:58;;;;;;;2.38;1.38;;;;;;;26.88;41.66;101439.25;5087608;28;20483;-70
2023/07/11 04:30:24;;;;;;;1.98;1.30;;;;;;;26.54;42.13;101446.94;5090264;28;20028;-71
2023/07/11 04:32:51;;;;;;;0.68;0.68;;;;;;;26.51;42.73;101447.13;5089653;28;20412;-70
2023/07/11 04:35:17;;;;;;;1.63;1.52;;;;;;;26.46;42.79;101443.91;5087902;28;20024;-70
2023/07/11 04:37:43;;;;;;;1.20;0.60;;;;;;;27.18;41.06;101432.72;5088620;28;20036;-71
2023/07/11 04:40:10;;;;;;;2.42;1.10;;;;;;;27.24;41.38;101434.09;5089383;28;20032;-71
2023/07/11 04:42:35;;;;;;;2.25;0.85;;;;;;;27.34;41.33;101439.66;5087933;28;20028;-71
2023/07/11 04:45:01;;;;;;;1.55;1.00;;;;;;;27.31;41.27;101437.19;5088058;28;20081;-71
2023/07/11 04:47:27;;;;;;;3.20;0.93;;;;;;;27.18;42.16;101427.34;5088479;28;20459;-71
2023/07/11 04:49:53;;;;;;;4.82;1.35;;;;;;;27.74;41.13;101432.28;5087383;28;20074;-71
2023/07/11 04:52:18;;;;;;;6.03;1.60;;;;;;;27.44;41.76;101430.03;5088668;28;20028;-71
2023/07/11 04:54:44;;;;;;;2.72;1.30;;;;;;;27.86;41.21;101435.91;5086988;28;20039;-71
2023/07/11 04:57:09;;;;;;;1.38;1.05;;;;;;;28.47;39.87;101423.34;5068182;28;20457;-71
2023/07/11 04:59:35;;;;;;;0.70;0.70;;;;;;;29.17;38.83;101416.13;5051414;28;20435;-71
2023/07/11 05:02:00;;;;;;;0.93;0.80;;;;;;;29.21;38.50;101420.28;5050997;28;20028;-72
2023/07/11 05:04:26;;;;;;;1.25;0.88;;;;;;;29.40;37.86;101412.50;5050768;28;20025;-71
2023/07/11 05:06:51;;;;;;;2.63;1.27;;;;;;;29.54;37.56;101405.97;5050641;28;20033;-71
2023/07/11 05:09:17;;;;;;;1.65;0.80;;;;;;;28.65;39.09;101415.75;5068775;28;20112;-72
2023/07/11 05:11:43;;;;;;;0.60;0.60;;;;;;;28.57;39.69;101414.44;5069651;28;20032;-72
2023/07/11 05:14:09;;;;;;;1.70;1.38;;;;;;;28.79;39.51;101396.69;5068965;28;20039;-71
2023/07/11 05:16:35;;;;;;;3.58;1.20;;;;;;;28.27;40.29;101394.34;5050745;28;20028;-71
2023/07/11 05:19:00;;;;;;;2.05;0.88;;;;;;;28.44;40.18;101398.44;5053090;28;20033;-71
2023/07/11 05:21:27;;;;;;;0.70;0.70;;;;;;;28.16;40.73;101398.81;5055348;28;20020;-71
2023/07/11 05:23:55;;;;;;;1.30;1.20;;;;;;;28.15;40.48;101392.59;5071778;28;20029;-71
2023/07/11 05:26:21;;;;;;;0.90;0.90;;;;;;;28.90;39.51;101382.38;5055188;28;20029;-72
2023/07/11 05:28:46;;;;;;;0.65;0.65;;;;;;;28.83;39.24;101371.25;5055151;28;20055;-72
2023/07/11 05:31:12;;;;;;;6.53;1.98;;;;;;;29.09;39.60;101373.72;5053651;28;20029;-72
2023/07/11 05:33:37;;;;;;;1.02;0.70;;;;;;;28.59;40.06;101382.94;5054646;28;20017;-72
2023/07/11 05:36:18;;;;;;;1.73;1.40;;;;;;;29.02;39.80;101375.19;5072272;28;20024;-72
2023/07/11 05:38:43;;;;;;;1.50;1.40;;;;;;;28.86;40.05;101372.84;5072005;28;20025;-73
2023/07/11 05:41:09;;;;;;;8.27;1.83;;;;;;;28.63;40.61;101358.50;5072576;28;20041;-71
2023/07/11 05:43:34;;;;;;;9.15;1.50;;;;;;;28.85;40.30;101358.56;5054612;28;20392;-72
2023/07/11 05:46:00;;;;;;;2.05;1.52;;;;;;;28.51;40.71;101358.50;5071892;28;20033;-72
2023/07/11 05:48:25;;;;;;;8.77;1.33;;;;;;;28.00;42.19;101359.69;5072629;28;20557;-72
2023/07/11 05:51:02;;;;;;;1.75;1.20;;;;;;;27.61;42.89;101355.44;5054136;28;20035;-71
2023/07/11 05:53:28;;;;;;;2.05;1.77;;;;;;;28.43;41.56;101342.09;5054096;28;20028;-72
2023/07/11 05:55:55;;;;;;;2.60;1.25;;;;;;;28.37;41.52;101342.56;5072133;28;20095;-72
2023/07/11 05:58:21;;;;;;;3.13;1.60;;;;;;;28.40;41.84;101336.97;5091703;28;20085;-72
2023/07/11 06:00:46;;;;;;;1.42;1.15;;;;;;;28.70;41.25;101343.63;5090686;28;20476;-72
2023/07/11 06:03:11;;;;;;;3.60;1.63;;;;;;;27.83;42.97;101355.53;5090828;28;20028;-71
2023/07/11 06:05:37;;;;;;;1.65;1.10;;;;;;;28.18;42.58;101356.56;5092275;28;20035;-72
2023/07/11 06:08:03;;;;;;;3.15;1.42;;;;;;;28.82;41.47;101342.63;5092098;28;20028;-72
2023/07/11 06:10:29;;;;;;;3.08;1.58;;;;;;;28.14;42.85;101342.53;5091360;28;20053;-72
2023/07/11 06:12:54;;;;;;;2.03;1.52;;;;;;;28.35;42.21;101339.16;5090230;28;20032;-71
2023/07/11 06:15:20;;;;;;;2.75;2.10;;;;;;;28.77;42.12;101339.47;5092473;28;20059;-72
2023/07/11 06:17:45;;;;;;;2.63;1.92;;;;;;;29.24;41.34;101326.75;5090768;28;20085;-72
2023/07/11 06:20:11;;;;;;;1.67;1.58;;;;;;;28.34;42.54;101332.06;5090092;28;20055;-71
2023/07/11 06:22:37;;;;;;;3.08;2.08;;;;;;;28.97;40.95;101334.34;5107840;28;20024;-72
2023/07/11 06:25:02;;;;;;;3.10;2.33;;;;;;;28.30;41.75;101330.59;5092059;28;20035;-72
2023/07/11 06:27:29;;;;;;;2.08;1.80;;;;;;;30.12;38.57;101332.06;5091150;28;20020;-72
2023/07/11 06:29:55;;;;;;;1.63;1.23;;;;;;;31.15;36.15;101333.06;5091071;28;20073;-71
2023/07/11 06:32:20;;;;;;;500.95;229.57;;;;;;;31.87;34.82;101335.56;5090553;28;20127;-71
2023/07/11 06:34:46;;;;;;;462.83;432.88;;;;;;;34.74;30.86;101328.16;5089811;28;20132;-72
2023/07/11 06:37:11;;;;;;;975.33;884.63;;;;;;;34.47;30.30;101327.31;5089933;28;20081;-72
2023/07/11 06:39:37;;;;;;;1337.53;999.90;;;;;;;34.88;29.63;101318.56;5090571;28;20024;-72
2023/07/11 06:42:03;;;;;;;1920.20;999.90;;;;;;;35.32;29.27;101324.66;5089432;28;20028;-72
2023/07/11 06:44:30;;;;;;;1999.90;999.90;;;;;;;35.23;28.83;101320.19;5090087;28;20514;-72
2023/07/11 06:46:55;;;;;;;1999.90;999.90;;;;;;;36.86;26.69;101318.59;5089627;28;20124;-72
2023/07/11 06:49:21;;;;;;;1999.90;999.90;;;;;;;38.29;26.28;101325.44;5089582;28;20153;-72
2023/07/11 06:51:48;;;;;;;1999.90;999.90;;;;;;;37.77;25.45;101321.63;5090055;28;20028;-72
2023/07/11 06:54:13;;;;;;;1999.90;999.90;;;;;;;36.97;26.37;101323.66;5089923;28;20107;-72
2023/07/11 06:56:39;;;;;;;1999.90;999.90;;;;;;;37.26;25.17;101325.72;5088928;28;20158;-72
2023/07/11 06:59:04;;;;;;;1999.90;999.90;;;;;;;38.86;23.65;101326.66;5089587;28;20468;-72
2023/07/11 07:01:29;;;;;;;1999.90;999.90;;;;;;;38.17;24.76;101322.28;5091046;28;20031;-72
2023/07/11 07:03:55;;;;;;;1999.90;999.90;;;;;;;39.18;23.76;101319.91;5088521;28;20594;-72
2023/07/11 07:06:21;;;;;;;1999.90;999.90;;;;;;;38.75;24.21;101324.44;5089625;28;20031;-72
2023/07/11 07:08:47;;;;;;;1999.90;999.90;;;;;;;39.16;23.45;101323.91;5089080;28;20545;-72
2023/07/11 07:11:12;;;;;;;1999.90;999.90;;;;;;;40.17;23.11;101326.50;5089200;28;20055;-72
2023/07/11 07:13:38;;;;;;;1999.90;999.90;;;;;;;39.36;23.00;101322.22;5090785;28;20028;-72
2023/07/11 07:16:04;;;;;;;1999.90;999.90;;;;;;;39.16;22.39;101326.63;5088132;28;20024;-72
2023/07/11 07:18:34;;;;;;;1999.90;999.90;;;;;;;39.86;22.26;101329.66;5089431;28;20059;-72
2023/07/11 07:21:00;;;;;;;1999.90;999.90;;;;;;;39.93;21.62;101322.31;5089087;28;20052;-72
2023/07/11 07:23:26;;;;;;;1999.90;999.90;;;;;;;37.27;23.95;101330.09;5088494;28;20059;-72
2023/07/11 07:25:57;;;;;;;1999.90;999.90;;;;;;;38.52;22.72;101326.19;5089061;28;20024;-72
2023/07/11 07:28:24;;;;;;;1999.90;999.90;;;;;;;38.53;23.19;101327.03;5090878;28;20028;-72
2023/07/11 07:30:54;;;;;;;1999.90;999.90;;;;;;;37.56;23.77;101328.56;5088214;28;20442;-71
2023/07/11 07:33:23;;;;;;;1999.90;999.90;;;;;;;40.10;22.49;101322.06;5090473;28;20028;-70
2023/07/11 07:35:50;;;;;;;1999.90;999.90;;;;;;;39.90;22.15;101317.25;5088812;28;20599;-72
2023/07/11 07:38:15;;;;;;;1999.90;999.90;;;;;;;39.85;21.79;101325.22;5088421;28;20016;-72
2023/07/11 07:40:41;;;;;;;1999.90;999.90;;;;;;;38.96;22.72;101316.25;5090661;28;20285;-72
2023/07/11 07:43:07;;;;;;;1999.90;999.90;;;;;;;40.11;21.42;101318.28;5088089;28;20437;-70
2023/07/11 07:45:32;;;;;;;1999.90;999.90;;;;;;;38.41;23.55;101323.09;5088329;28;20051;-71
2023/07/11 07:47:57;;;;;;;1999.90;999.90;;;;;;;39.76;22.12;101310.81;5089910;28;20052;-70
2023/07/11 07:50:23;;;;;;;1999.90;999.90;;;;;;;39.88;21.99;101313.88;5089134;28;20538;-71
2023/07/11 07:52:48;;;;;;;1999.90;999.90;;;;;;;38.99;22.83;101310.44;5087906;28;20507;-70
2023/07/11 07:55:14;;;;;;;1999.90;999.90;;;;;;;39.20;22.37;101300.59;5088701;28;20142;-70
2023/07/11 07:57:39;;;;;;;1999.90;999.90;;;;;;;39.20;22.54;101300.59;5088876;28;20027;-72
2023/07/11 08:00:05;;;;;;;1999.90;999.90;;;;;;;37.96;24.30;101299.31;5087734;28;20028;-71
2023/07/11 08:02:32;;;;;;;1999.90;999.90;;;;;;;39.80;22.41;101305.81;5088962;28;20036;-71
2023/07/11 08:04:58;;;;;;;1999.90;999.90;;;;;;;37.50;24.52;101299.34;5089193;28;20016;-70
2023/07/11 08:07:26;;;;;;;1999.90;999.90;;;;;;;36.79;25.45;101302.09;5088478;28;20024;-70
2023/07/11 08:09:54;;;;;;;1999.90;999.90;;;;;;;39.63;22.97;101295.16;5088059;28;20020;-71
2023/07/11 08:12:19;;;;;;;1999.90;999.90;;;;;;;37.83;23.70;101299.09;5089550;28;20420;-71
2023/07/11 08:14:44;;;;;;;1999.90;999.90;;;;;;;38.87;22.81;101295.59;5089845;28;20020;-71
2023/07/11 08:17:10;;;;;;;1999.90;999.90;;;;;;;37.63;23.66;101296.84;5089355;28;20028;-71
2023/07/11 08:19:36;;;;;;;1999.90;999.90;;;;;;;37.38;24.33;101303.53;5089467;28;20027;-71
2023/07/11 08:22:01;;;;;;;1999.90;999.90;;;;;;;39.60;23.07;101300.16;5089286;28;20479;-71
2023/07/11 08:24:28;;;;;;;1999.90;999.90;;;;;;;38.09;23.66;101300.56;5088331;28;20062;-71
2023/07/11 08:26:54;;;;;;;1999.90;999.90;;;;;;;36.67;25.48;101291.59;5087277;28;20031;-71
2023/07/11 08:29:20;;;;;;;1999.90;999.90;;;;;;;37.93;23.98;101296.09;5090207;28;20020;-71
2023/07/11 08:31:45;;;;;;;1999.90;999.90;;;;;;;39.97;21.53;101293.53;5089918;28;20038;-71
2023/07/11 08:34:11;;;;;;;1999.90;999.90;;;;;;;39.15;22.49;101281.22;5087627;28;20053;-70
2023/07/11 08:36:39;;;;;;;1999.90;999.90;;;;;;;37.03;24.38;101286.66;5089816;28;20069;-71
2023/07/11 08:39:06;;;;;;;1999.90;999.90;;;;;;;40.79;21.44;101282.00;5087904;28;20386;-71
2023/07/11 08:41:45;;;;;;;1999.90;999.90;;;;;;;39.16;22.34;101285.66;5087816;28;20527;-71
2023/07/11 08:44:16;;;;;;;1999.90;999.90;;;;;;;39.38;22.21;101286.50;5089001;28;20059;-71
2023/07/11 08:47:03;;;;;;;1999.90;999.90;;;;;;;38.89;23.08;101293.50;5088541;28;20016;-71
2023/07/11 08:49:50;;;;;;;1999.90;999.90;;;;;;;37.98;23.14;101291.78;5087942;28;20807;-71
2023/07/11 08:52:18;;;;;;;1999.90;999.90;;;;;;;37.60;24.17;101282.72;5077783;28;20040;-71
2023/07/11 08:55:05;;;;;;;1999.90;999.90;;;;;;;37.46;24.33;101289.81;5089758;28;20027;-71
2023/07/11 08:57:36;;;;;;;1999.90;999.90;;;;;;;39.77;21.90;101289.78;5055486;28;20023;-72
2023/07/11 09:00:12;;;;;;;1999.90;999.90;;;;;;;37.83;22.77;101280.84;5055152;28;20392;-71
2023/07/11 09:02:47;;;;;;;1999.90;999.90;;;;;;;39.14;21.89;101274.00;5054652;28;20097;-71
2023/07/11 09:05:18;;;;;;;1999.90;999.90;;;;;;;38.18;23.21;101280.31;5054150;28;20048;-71
2023/07/11 09:07:45;;;;;;;1999.90;999.90;;;;;;;37.30;23.81;101283.47;5055268;28;20025;-71
2023/07/11 09:10:32;;;;;;;1999.90;999.90;;;;;;;36.15;24.95;101283.91;5054086;28;20107;-71
2023/07/11 09:13:23;;;;;;;1999.90;999.90;;;;;;;36.07;25.18;101281.22;5054688;28;20079;-71
2023/07/11 09:15:55;;;;;;;1999.90;999.90;;;;;;;35.16;25.37;101289.28;5053833;28;20130;-71
2023/07/11 09:18:28;;;;;;;1999.90;999.90;;;;;;;37.96;23.27;101272.03;5073439;28;20024;-71
2023/07/11 09:21:07;;;;;;;1999.90;999.90;;;;;;;36.05;25.38;101285.97;5054718;28;20059;-72
2023/07/11 09:23:54;;;;;;;1999.90;999.90;;;;;;;38.53;22.62;101278.72;5072059;28;20051;-71
2023/07/11 09:26:27;;;;;;;1999.90;999.90;;;;;;;35.61;25.96;101277.16;5072925;28;20025;-71
2023/07/11 09:29:05;;;;;;;1999.90;999.90;;;;;;;36.95;24.55;101272.09;5072376;28;20062;-71
2023/07/11 09:31:39;;;;;;;1999.90;999.90;;;;;;;36.51;24.77;101264.44;5054292;28;20071;-71
2023/07/11 09:34:20;;;;;;;1999.90;999.90;;;;;;;36.82;24.26;101256.34;5072445;28;20020;-71
2023/07/11 09:36:48;;;;;;;1999.90;999.90;;;;;;;36.21;25.00;101260.63;5053799;28;20450;-71
2023/07/11 09:39:22;;;;;;;1999.90;999.90;;;;;;;36.19;25.96;101263.50;5055025;28;20095;-71
2023/07/11 09:42:01;;;;;;;1999.90;999.90;;;;;;;37.42;23.77;101263.97;5054796;28;20033;-71
2023/07/11 09:44:26;;;;;;;1999.90;999.90;;;;;;;38.38;23.13;101263.44;5071980;28;20130;-71
2023/07/11 09:46:52;;;;;;;1999.90;999.90;;;;;;;38.19;23.46;101265.63;5053947;28;20099;-71
2023/07/11 09:49:28;;;;;;;1999.90;999.90;;;;;;;37.18;25.23;101268.56;5054506;28;20035;-71
2023/07/11 09:51:56;;;;;;;1999.90;999.90;;;;;;;37.34;24.24;101267.59;5053436;28;20101;-71
2023/07/11 09:54:28;;;;;;;1999.90;999.90;;;;;;;37.16;24.59;101263.25;5054463;28;20478;-71
2023/07/11 09:56:55;;;;;;;1999.90;999.90;;;;;;;34.61;27.30;101269.75;5088477;28;20044;-71
2023/07/11 09:59:21;;;;;;;1999.90;999.90;;;;;;;36.79;24.93;101253.91;5090513;28;20043;-71
2023/07/11 10:01:53;;;;;;;1999.90;999.90;;;;;;;36.96;24.74;101254.72;5091420;28;20050;-71
2023/07/11 10:04:23;;;;;;;1999.90;999.90;;;;;;;38.08;24.13;101252.47;5090695;28;20039;-71
2023/07/11 10:06:58;;;;;;;1999.90;999.90;;;;;;;37.12;24.65;101256.47;5089712;28;20031;-71
2023/07/11 10:09:36;;;;;;;1999.90;999.90;;;;;;;38.59;23.40;101249.81;5091050;28;20016;-71
2023/07/11 10:12:11;;;;;;;1999.90;999.90;;;;;;;37.76;24.18;101249.06;5089810;28;20024;-71
2023/07/11 10:14:42;;;;;;;1999.90;999.90;;;;;;;36.31;25.94;101256.69;5090856;28;20042;-72
2023/07/11 10:17:18;;;;;;;1999.90;999.90;;;;;;;35.54;26.63;101251.66;5090549;28;20973;-71
2023/07/11 10:19:46;;;;;;;1999.90;999.90;;;;;;;37.87;24.64;101245.88;5090349;28;20027;-71
2023/07/11 10:22:17;;;;;;;1999.90;999.90;;;;;;;35.53;27.19;101247.25;5090503;28;20055;-71
2023/07/11 10:24:43;;;;;;;1999.90;999.90;;;;;;;34.28;28.47;101253.28;5090868;28;20028;-71
2023/07/11 10:27:14;;;;;;;1999.90;999.90;;;;;;;36.02;26.12;101248.25;5089726;28;20089;-71
2023/07/11 10:29:50;;;;;;;1999.90;999.90;;;;;;;35.99;26.84;101253.00;5090597;28;20101;-72
2023/07/11 10:32:27;;;;;;;1999.90;999.90;;;;;;;33.95;29.58;101253.06;5090867;28;20278;-70
2023/07/11 10:35:00;;;;;;;1999.90;999.90;;;;;;;34.88;27.74;101248.81;5090887;28;20039;-70
2023/07/11 10:37:36;;;;;;;1999.90;999.90;;;;;;;35.53;27.42;101246.38;5090818;28;20028;-71
2023/07/11 10:40:18;;;;;;;1999.90;999.90;;;;;;;34.51;28.63;101250.00;5089459;28;20128;-70
2023/07/11 10:43:08;;;;;;;1999.90;999.90;;;;;;;37.33;25.20;101244.97;5090464;28;20433;-71
2023/07/11 10:45:43;;;;;;;1999.90;999.90;;;;;;;37.12;25.43;101240.13;5091520;28;20384;-71
2023/07/11 10:48:17;;;;;;;1999.90;999.90;;;;;;;37.00;26.16;101241.56;5089287;28;20038;-71
2023/07/11 10:51:19;;;;;;;1999.90;999.90;;;;;;;37.77;25.08;101239.81;5090432;28;20076;-71
2023/07/11 10:54:23;;;;;;;1999.90;999.90;;;;;;;35.67;26.68;101238.41;5064835;28;20032;-70
2023/07/11 10:56:56;;;;;;;1999.90;999.90;;;;;;;36.56;27.42;101221.22;5072177;28;20471;-70
2023/07/11 10:59:23;;;;;;;1999.90;999.90;;;;;;;38.07;25.04;101223.50;5053158;28;20024;-71
2023/07/11 11:01:54;;;;;;;1999.90;999.90;;;;;;;37.67;25.66;101224.56;5052293;28;20024;-70
2023/07/11 11:04:49;;;;;;;1999.90;999.90;;;;;;;36.52;27.15;101230.78;5070782;28;20039;-71
2023/07/11 11:07:19;;;;;;;1999.90;999.90;;;;;;;35.96;27.68;101233.47;5053038;28;20028;-71
2023/07/11 11:10:13;;;;;;;1999.90;999.90;;;;;;;37.11;26.85;101223.97;5052504;28;20364;-71
2023/07/11 11:12:43;;;;;;;1999.90;999.90;;;;;;;37.53;25.99;101222.63;5053092;28;20399;-71
2023/07/11 11:15:50;;;;;;;1999.90;999.90;;;;;;;36.15;27.79;101229.50;5051880;28;20463;-71